Lamont, FL (32336)

7:38 PM EST on January 25, 2015 (GMT -0500)
Chaires Elementary WeatherSTEM | Change Station
CLOSE
Current Station
Personal Weather Station
Location: Tallahassee, FL
Elevation: 89 ft
Nearby Weather Stations
Active Advisory: Flood Warning

Elev 89 ft 30.44 °N, 84.12 °W | Updated 3 minutes ago

Partly Cloudy
Partly Cloudy
52.5 °F
Feels Like 52.5 °F
N
2.0
Wind Variable Wind from South
Gusts 5.0 mph

Today
High -- | Low -- °F
--% Chance of Precip.
Yesterday
High -- | Low -- °F
Precip. -- in
7:30 AM 6:06 PM
Waxing Crescent, 37% visible
Pressure 29.91 in
Visibility 10.0 miles
Clouds Few 4000 ft
Few 25000 ft
Dew Point 47 °F
Humidity 80%
Rainfall 0.00 in
Snow Depth Not available.
UV 0.0 out of 12
Pollen 5.60 out of 12
Air Quality Not available.
Flu Activity Not available.
METAR KTLH 252353Z 18006KT 10SM FEW040 FEW250 13/06 A2991 RMK AO2 SLP127 T01280056 10189 20128 58004 $

More Conditions Fewer Conditions

Pressure 29.91 in
Visibility 10.0 miles
Clouds Few 4000 ft
Few 25000 ft
Dew Point 47 °F
Humidity 80%
Rainfall 0.00 in
Snow Depth Not available.
UV 0.0 out of 12
Pollen 5.60 out of 12
Air Quality Not available.
Flu Activity Not available.
METAR KTLH 252353Z 18006KT 10SM FEW040 FEW250 13/06 A2991 RMK AO2 SLP127 T01280056 10189 20128 58004 $

More Conditions Fewer Conditions

10-Day Weather Forecast

Almanac

Astronomy

Jan. 25, 2015 Rise Set
Actual Time
Civil Twilight
Nautical Twilight
Astronomical Twilight
Moon
Length of Visible Light
Length of Day
Tomorrow will be .
, % of the Moon is Illuminated

Today's Extremes

State Highs State Lows

Community

WunderPhotos

Upload Photos

1,790,022 photos uploaded!

WunderBlogs® & News

Nearby

Air Quality

  Air Quality AQ Index Pollutant
Not available.

Snow Depth

Station Depth Elevation

Earthquake Activity

City Distance Mag. Time & Date
Minimum magnitude displayed is 2.5.

Coastal Water Temperatures

Place Temperature

Nearby Weather Stations